createdAt,value
2023-09-08T00:02:24.314Z,40.75
2023-09-08T00:05:17.727Z,47.58
2023-09-08T00:08:04.825Z,45.35
2023-09-08T00:10:58.875Z,29.17
2023-09-08T00:13:46.010Z,24.33
2023-09-08T00:16:39.798Z,20.95
2023-09-08T02:45:51.061Z,28.13
2023-09-08T02:48:38.313Z,30.48
2023-09-08T02:51:31.965Z,25.48
2023-09-08T02:53:59.180Z,46.00
2023-09-08T02:56:52.756Z,85.63
2023-09-08T02:59:46.911Z,76.47
2023-09-08T03:02:34.411Z,75.65
2023-09-08T03:05:28.790Z,54.60
2023-09-08T03:07:56.210Z,37.15
2023-09-08T03:10:49.765Z,38.53
2023-09-08T03:13:37.018Z,205.60
2023-09-08T03:16:34.137Z,375.95
2023-09-08T03:19:21.467Z,457.10
2023-09-08T03:22:14.920Z,490.38
2023-09-08T03:25:02.099Z,360.90
2023-09-08T03:27:55.937Z,407.73
2023-09-08T03:30:43.187Z,183.68
2023-09-08T03:33:37.062Z,88.75
2023-09-08T03:36:24.493Z,97.72
2023-09-08T03:39:17.772Z,169.32
2023-09-08T03:42:11.934Z,331.35
2023-09-08T03:45:18.791Z,262.27
2023-09-08T03:48:13.013Z,140.95
2023-09-08T03:51:06.797Z,102.47
2023-09-08T03:53:53.871Z,65.32
2023-09-08T03:56:47.953Z,76.53
2023-09-08T03:59:35.068Z,72.90
2023-09-08T04:02:29.055Z,149.93
2023-09-08T04:05:16.404Z,78.25
2023-09-08T04:08:09.884Z,77.28
2023-09-08T04:10:57.073Z,50.90
2023-09-08T04:13:30.935Z,64.78
2023-09-08T04:16:18.310Z,67.22
2023-09-08T04:19:11.807Z,56.92
2023-09-08T04:22:06.116Z,65.80
2023-09-08T04:24:56.513Z,90.30
2023-09-08T04:27:49.911Z,62.15
2023-09-08T04:30:37.197Z,106.68
2023-09-08T04:33:30.958Z,91.90
2023-09-08T04:36:18.275Z,76.47
2023-09-08T04:39:11.901Z,64.20
2023-09-08T04:41:54.428Z,110.05
2023-09-08T04:44:53.960Z,102.88
2023-09-08T04:50:35.004Z,143.60
2023-09-08T04:53:22.565Z,195.38
2023-09-08T04:56:16.961Z,216.63
2023-09-08T04:59:04.126Z,279.17
2023-09-08T05:01:40.002Z,210.80
2023-09-08T05:04:07.312Z,337.73
2023-09-08T05:06:34.698Z,224.10
2023-09-08T05:09:08.814Z,326.17
2023-09-08T05:11:36.070Z,373.35
2023-09-08T05:14:15.810Z,305.27
2023-09-08T05:16:47.482Z,443.17
2023-09-08T05:19:20.825Z,342.67
2023-09-08T05:21:48.075Z,324.33
2023-09-08T05:24:15.302Z,381.17
2023-09-08T05:26:49.822Z,406.15
2023-09-08T05:29:17.078Z,332.15
2023-09-08T05:31:44.578Z,367.38
2023-09-08T05:36:45.471Z,326.40
2023-09-08T05:41:48.824Z,286.02
2023-09-08T05:44:23.281Z,390.70
2023-09-08T05:47:22.995Z,332.67
2023-09-08T05:50:10.460Z,125.97
2023-09-08T05:53:03.978Z,259.88
2023-09-08T05:55:51.195Z,193.98
2023-09-08T05:58:44.980Z,203.38
2023-09-08T06:01:32.346Z,313.30
2023-09-08T06:04:25.938Z,268.10
2023-09-08T06:07:26.840Z,177.10
2023-09-08T06:10:20.857Z,332.40
2023-09-08T06:13:08.102Z,242.60
2023-09-08T06:16:02.246Z,145.63
2023-09-08T06:18:50.080Z,335.90
2023-09-08T06:21:43.846Z,163.98
2023-09-08T06:24:37.867Z,184.38
2023-09-08T06:27:25.068Z,203.13
2023-09-08T06:30:18.863Z,198.85
2023-09-08T06:33:06.124Z,197.27
2023-09-08T06:35:59.899Z,284.08
2023-09-08T06:38:47.028Z,326.90
2023-09-08T06:41:40.936Z,304.83
2023-09-08T06:44:40.969Z,143.43
2023-09-08T06:47:34.933Z,338.95
2023-09-08T06:50:22.155Z,258.80
2023-09-08T06:53:16.872Z,117.35
2023-09-08T06:55:45.740Z,156.82
2023-09-08T06:58:15.838Z,128.50
2023-09-08T07:00:50.014Z,121.22
2023-09-08T07:03:37.428Z,74.72
2023-09-08T07:06:31.880Z,83.10
2023-09-08T07:09:19.170Z,91.63
2023-09-08T07:12:12.943Z,78.93
2023-09-08T07:15:00.187Z,81.80
2023-09-08T07:17:54.125Z,63.08
2023-09-08T07:20:41.705Z,133.20
2023-09-08T07:23:35.003Z,36.63
2023-09-08T07:26:22.349Z,29.67
2023-09-08T07:29:16.046Z,20.33
2023-09-08T07:32:03.201Z,24.17
2023-09-08T07:34:57.142Z,34.38
2023-09-08T07:37:50.937Z,35.30
2023-09-08T07:40:45.022Z,32.70
2023-09-08T07:43:32.205Z,53.13
2023-09-08T07:46:33.917Z,21.90
2023-09-08T07:49:21.618Z,21.52
2023-09-08T07:52:14.911Z,38.47
2023-09-08T07:55:02.255Z,53.97
2023-09-08T07:57:56.050Z,80.07
2023-09-08T08:00:43.384Z,24.33
2023-09-08T08:03:37.100Z,23.10
2023-09-08T08:06:24.345Z,17.95
2023-09-08T08:09:17.991Z,96.10
2023-09-08T08:12:05.159Z,12.98
2023-09-08T08:14:59.089Z,17.17
2023-09-08T08:17:46.763Z,10.48
2023-09-08T08:20:41.082Z,12.95
2023-09-08T08:23:28.877Z,11.68
2023-09-08T08:26:24.274Z,14.50
2023-09-08T08:29:11.462Z,14.80
2023-09-08T08:32:04.944Z,11.02
2023-09-08T08:34:52.293Z,11.40
2023-09-08T08:37:45.968Z,12.57
2023-09-08T08:40:33.507Z,13.95
2023-09-08T08:43:27.130Z,15.02
2023-09-08T08:46:20.992Z,12.20
2023-09-08T08:49:22.027Z,15.25
2023-09-08T08:52:09.897Z,10.77
2023-09-08T08:55:06.067Z,9.87
2023-09-08T08:57:53.917Z,10.90
2023-09-08T09:00:48.075Z,7.87
2023-09-08T09:03:35.606Z,9.65
2023-09-08T09:06:32.638Z,9.23
2023-09-08T09:09:27.094Z,8.82
2023-09-08T09:12:14.288Z,8.25
2023-09-08T09:15:13.095Z,7.03
2023-09-08T09:18:00.351Z,8.90
2023-09-08T09:20:54.033Z,6.80
2023-09-08T09:23:55.610Z,5.88
2023-09-08T09:26:53.920Z,5.78
2023-09-08T09:29:41.036Z,6.65
2023-09-08T09:32:37.969Z,6.43
2023-09-08T09:35:25.276Z,6.35
2023-09-08T09:38:19.027Z,7.25
2023-09-08T09:41:06.728Z,5.82
2023-09-08T09:44:01.072Z,5.65
2023-09-08T09:46:56.032Z,6.25
2023-09-08T09:49:50.219Z,6.13
2023-09-08T09:52:44.266Z,5.93
2023-09-08T09:55:37.931Z,5.25
2023-09-08T09:58:25.569Z,5.82
2023-09-08T10:01:21.770Z,5.32
2023-09-08T10:04:09.493Z,5.78
2023-09-08T10:07:03.984Z,7.43
2023-09-08T10:09:51.539Z,9.05
2023-09-08T10:12:45.940Z,5.30
2023-09-08T10:15:40.014Z,5.50
2023-09-08T10:18:27.571Z,8.18
2023-09-08T10:21:22.185Z,7.28
2023-09-08T10:24:16.172Z,6.13
2023-09-08T10:27:12.155Z,4.53
2023-09-08T10:29:59.887Z,5.25
2023-09-08T10:32:53.983Z,5.47
2023-09-08T10:35:41.218Z,4.40
2023-09-08T10:38:53.941Z,4.75
2023-09-08T10:41:44.139Z,6.82
2023-09-08T10:44:38.050Z,5.10
2023-09-08T10:47:32.051Z,7.63
2023-09-08T10:50:25.997Z,5.40
2023-09-08T10:53:28.360Z,6.07
2023-09-08T10:56:22.202Z,6.72
2023-09-08T10:59:13.268Z,7.20
2023-09-08T11:02:07.030Z,6.07
2023-09-08T11:04:55.584Z,5.35
2023-09-08T11:07:49.023Z,4.35
2023-09-08T11:10:36.304Z,10.80
2023-09-08T11:13:29.994Z,7.25
2023-09-08T11:16:17.533Z,6.03
2023-09-08T11:19:11.149Z,6.85
2023-09-08T11:21:58.461Z,7.75
2023-09-08T11:24:53.062Z,5.03
2023-09-08T11:27:47.026Z,4.95
2023-09-08T11:30:34.668Z,5.50
2023-09-08T11:33:29.211Z,4.77
2023-09-08T11:36:16.705Z,6.95
2023-09-08T11:39:11.115Z,7.53
2023-09-08T11:41:58.656Z,6.45
2023-09-08T11:44:59.128Z,6.63
2023-09-08T11:47:53.242Z,5.75
2023-09-08T11:50:46.981Z,11.07
2023-09-08T11:53:34.067Z,6.47
2023-09-08T11:56:27.987Z,8.70
2023-09-08T11:59:15.319Z,7.13
2023-09-08T12:02:09.019Z,7.50
2023-09-08T12:04:57.989Z,9.35
2023-09-08T12:07:52.252Z,5.97
2023-09-08T12:10:39.815Z,10.45
2023-09-08T12:13:34.012Z,6.20
2023-09-08T12:16:21.494Z,7.43
2023-09-08T12:19:15.041Z,6.47
2023-09-08T12:22:18.430Z,6.15
2023-09-08T12:25:24.156Z,6.63
2023-09-08T12:28:11.953Z,6.60
2023-09-08T12:31:07.348Z,6.20
2023-09-08T12:33:54.580Z,6.03
2023-09-08T12:36:48.045Z,8.35
2023-09-08T12:39:35.161Z,7.95
2023-09-08T12:42:29.002Z,6.80
2023-09-08T12:45:23.220Z,4.90
2023-09-08T12:48:28.150Z,4.40
2023-09-08T12:51:15.243Z,7.75
2023-09-08T12:54:09.169Z,6.10
2023-09-08T12:56:56.248Z,5.60
2023-09-08T12:59:50.172Z,4.70
2023-09-08T13:02:37.355Z,7.57
2023-09-08T13:05:31.052Z,6.70
2023-09-08T13:08:18.382Z,8.02
2023-09-08T13:11:12.109Z,4.70
2023-09-08T13:13:59.308Z,6.18
2023-09-08T13:16:53.180Z,5.93
2023-09-08T13:19:40.329Z,6.28
2023-09-08T13:22:34.053Z,6.88
2023-09-08T13:25:21.280Z,6.22
2023-09-08T13:28:15.072Z,6.07
2023-09-08T13:31:02.201Z,5.93
2023-09-08T13:33:56.191Z,7.75
2023-09-08T13:36:50.039Z,5.55
2023-09-08T13:39:37.324Z,7.15
2023-09-08T13:42:31.298Z,5.30
2023-09-08T13:45:25.074Z,5.82
2023-09-08T13:48:25.942Z,7.28
2023-09-08T13:51:14.293Z,6.50
2023-09-08T13:56:55.938Z,5.50
2023-09-08T13:59:50.537Z,4.35
2023-09-08T14:02:36.080Z,3.95
2023-09-08T14:05:17.267Z,5.50
2023-09-08T14:07:47.006Z,3.75
2023-09-08T14:10:30.306Z,3.42
2023-09-08T14:13:25.677Z,4.95
2023-09-08T14:16:19.059Z,5.00
2023-09-08T14:19:06.383Z,5.55
2023-09-08T14:22:00.176Z,7.20
2023-09-08T14:24:47.495Z,4.45
2023-09-08T14:27:41.214Z,4.43
2023-09-08T14:30:08.651Z,4.57
2023-09-08T14:33:02.131Z,3.95
2023-09-08T14:35:49.631Z,4.55
2023-09-08T14:38:24.218Z,3.65
2023-09-08T14:41:18.450Z,4.30
2023-09-08T14:44:12.144Z,4.88
2023-09-08T14:47:06.124Z,4.75
2023-09-08T14:50:00.228Z,8.10
2023-09-08T14:52:47.816Z,5.00
2023-09-08T14:55:43.634Z,4.70
2023-09-08T14:58:37.076Z,5.30
2023-09-08T15:01:25.457Z,6.20
2023-09-08T15:04:19.195Z,4.13
2023-09-08T15:07:13.107Z,5.22
2023-09-08T15:10:07.151Z,7.00
2023-09-08T15:12:54.452Z,4.90
2023-09-08T15:15:48.205Z,6.40
2023-09-08T15:18:35.352Z,6.32
2023-09-08T15:21:29.110Z,5.35
2023-09-08T15:24:16.200Z,8.25
2023-09-08T15:27:10.115Z,9.32
2023-09-08T15:29:57.226Z,6.60
2023-09-08T15:32:52.374Z,5.95
2023-09-08T15:35:34.812Z,6.18
2023-09-08T15:38:08.141Z,4.72
2023-09-08T15:40:35.344Z,7.20
2023-09-08T15:43:02.613Z,9.23
2023-09-08T15:45:56.123Z,4.22
2023-09-08T15:48:50.117Z,7.20
2023-09-08T15:51:44.341Z,7.22
2023-09-08T15:54:38.333Z,6.53
2023-09-08T15:57:32.247Z,9.57
2023-09-08T16:00:19.554Z,9.77
2023-09-08T16:03:13.348Z,8.30
2023-09-08T16:06:00.624Z,5.45
2023-09-08T16:08:54.108Z,5.72
2023-09-08T16:11:41.270Z,8.48
2023-09-08T16:14:35.387Z,4.95
2023-09-08T16:17:23.148Z,5.95
2023-09-08T16:19:57.254Z,7.20
2023-09-08T16:22:44.558Z,5.95
2023-09-08T16:25:18.280Z,6.20
2023-09-08T16:28:05.522Z,8.40
2023-09-08T16:30:39.225Z,5.78
2023-09-08T16:33:06.528Z,6.38
2023-09-08T16:38:47.264Z,8.52
2023-09-08T16:41:41.145Z,9.00
2023-09-08T16:44:28.314Z,5.80
2023-09-08T16:47:29.187Z,7.45
2023-09-08T16:50:16.401Z,6.00
2023-09-08T16:53:10.181Z,7.72
2023-09-08T16:55:57.682Z,8.75
2023-09-08T16:58:51.433Z,6.75
2023-09-08T17:01:38.650Z,8.45
2023-09-08T17:04:32.222Z,7.70
2023-09-08T17:07:19.390Z,6.97
2023-09-08T17:10:13.399Z,7.28
2023-09-08T17:13:00.934Z,6.28
2023-09-08T17:15:54.367Z,8.02
2023-09-08T17:18:41.586Z,8.43
2023-09-08T17:21:15.340Z,7.40
2023-09-08T17:23:42.568Z,9.82
2023-09-08T17:26:10.890Z,7.43
2023-09-08T17:29:04.162Z,10.88
2023-09-08T17:31:51.448Z,7.70
2023-09-08T17:34:47.724Z,9.95
2023-09-08T17:37:37.027Z,8.48
2023-09-08T17:40:13.288Z,9.13
2023-09-08T17:43:00.438Z,9.13
2023-09-08T17:46:03.050Z,6.90
2023-09-08T17:48:58.191Z,8.75
2023-09-08T17:51:52.246Z,9.35
2023-09-08T17:54:39.809Z,9.18
2023-09-08T17:57:33.322Z,10.20
2023-09-08T18:00:20.630Z,12.43
2023-09-08T18:03:16.546Z,9.32
2023-09-08T18:06:04.730Z,8.55
2023-09-08T18:08:58.393Z,10.10
2023-09-08T18:11:25.954Z,11.60
2023-09-08T18:17:06.696Z,7.97
2023-09-08T18:20:00.185Z,14.80
2023-09-08T18:22:54.163Z,13.45
2023-09-08T18:25:48.484Z,12.93
2023-09-08T18:28:39.191Z,11.95
2023-09-08T18:31:33.345Z,13.20
2023-09-08T18:34:27.594Z,11.68
2023-09-08T18:37:14.706Z,10.18
2023-09-08T18:40:10.079Z,14.98
2023-09-08T18:42:58.503Z,14.68
2023-09-08T18:45:58.184Z,11.80
2023-09-08T18:48:54.277Z,14.18
2023-09-08T18:51:48.480Z,15.07
2023-09-08T18:54:35.578Z,17.73
2023-09-08T18:57:29.324Z,13.02
2023-09-08T19:00:16.601Z,15.27
2023-09-08T19:03:10.283Z,13.25
2023-09-08T19:05:57.512Z,11.07
2023-09-08T19:08:51.232Z,14.02
2023-09-08T19:11:38.451Z,15.82
2023-09-08T19:14:32.260Z,11.77
2023-09-08T19:17:26.314Z,13.20
2023-09-08T19:20:13.597Z,11.75
2023-09-08T19:23:07.176Z,12.98
2023-09-08T19:26:03.377Z,11.82
2023-09-08T19:28:50.567Z,14.60
2023-09-08T19:31:44.400Z,16.98
2023-09-08T19:34:11.704Z,16.05
2023-09-08T19:36:42.077Z,13.80
2023-09-08T19:39:37.268Z,12.52
2023-09-08T19:42:24.550Z,15.70
2023-09-08T19:45:18.256Z,15.57
2023-09-08T19:48:12.375Z,15.00
2023-09-08T19:51:06.357Z,13.43
2023-09-08T19:53:53.598Z,17.35
2023-09-08T19:56:47.240Z,12.52
2023-09-08T19:59:41.328Z,13.68
2023-09-08T20:02:28.953Z,14.40
2023-09-08T20:05:23.469Z,14.63
2023-09-08T20:08:10.645Z,10.50
2023-09-08T20:11:04.470Z,12.07
2023-09-08T20:13:51.567Z,14.60
2023-09-08T20:16:45.375Z,14.85
2023-09-08T20:19:32.617Z,9.07
2023-09-08T20:22:26.259Z,16.17
2023-09-08T20:25:20.216Z,13.50
2023-09-08T20:28:14.255Z,14.07
2023-09-08T20:33:58.208Z,17.20
2023-09-08T20:36:45.430Z,13.32
2023-09-08T20:39:39.260Z,15.93
2023-09-08T20:42:26.461Z,11.68
2023-09-08T20:45:20.413Z,11.77
2023-09-08T20:48:14.264Z,19.08
2023-09-08T20:51:08.230Z,15.70
2023-09-08T20:54:05.240Z,16.52
2023-09-08T20:56:59.289Z,15.90
2023-09-08T20:59:46.429Z,23.80
2023-09-08T21:02:40.403Z,18.13
2023-09-08T21:05:27.779Z,21.30
2023-09-08T21:08:21.554Z,14.27
2023-09-08T21:11:15.237Z,17.63
2023-09-08T21:14:02.389Z,17.17
2023-09-08T21:16:56.266Z,123.35
2023-09-08T21:19:43.546Z,15.88
2023-09-08T21:22:37.240Z,13.77
2023-09-08T21:25:24.897Z,22.35
2023-09-08T21:28:18.398Z,15.95
2023-09-08T21:31:05.557Z,22.05
2023-09-08T21:33:59.477Z,15.88
2023-09-08T21:36:46.729Z,15.43
2023-09-08T21:39:40.235Z,18.98
2023-09-08T21:42:34.377Z,17.67
2023-09-08T21:45:28.414Z,18.60
2023-09-08T21:48:22.524Z,16.90
2023-09-08T21:51:16.262Z,13.80
2023-09-08T21:54:10.557Z,10.88
2023-09-08T21:56:37.864Z,9.02
2023-09-08T21:59:31.781Z,10.95
2023-09-08T22:02:19.010Z,10.82
2023-09-08T22:05:13.399Z,15.40
2023-09-08T22:08:01.056Z,17.38
2023-09-08T22:10:34.404Z,16.17
2023-09-08T22:13:01.588Z,15.13
2023-09-08T22:15:55.407Z,20.23
2023-09-08T22:18:42.643Z,17.15
2023-09-08T22:21:36.366Z,20.73
2023-09-08T22:24:23.633Z,17.05
2023-09-08T22:27:32.275Z,16.23
2023-09-08T22:30:26.670Z,28.38
2023-09-08T22:33:20.617Z,16.30
2023-09-08T22:36:07.993Z,24.35
2023-09-08T22:39:02.382Z,18.90
2023-09-08T22:41:49.658Z,10.63
2023-09-08T22:44:43.260Z,14.93
2023-09-08T22:47:37.340Z,13.13
2023-09-08T22:50:32.345Z,12.35
2023-09-08T22:53:19.536Z,12.30
2023-09-08T22:56:13.296Z,13.57
2023-09-08T22:59:00.836Z,11.90
2023-09-08T23:01:54.301Z,18.48
2023-09-08T23:04:41.681Z,10.88
2023-09-08T23:07:15.297Z,13.65
2023-09-08T23:09:42.912Z,10.80
2023-09-08T23:15:23.803Z,19.50
2023-09-08T23:18:17.349Z,11.57
2023-09-08T23:21:04.703Z,15.32
2023-09-08T23:23:58.583Z,18.17
2023-09-08T23:26:52.336Z,17.80
2023-09-08T23:29:39.457Z,14.60
2023-09-08T23:32:33.402Z,12.38
2023-09-08T23:35:21.358Z,13.27
2023-09-08T23:38:15.302Z,12.70
2023-09-08T23:41:02.514Z,15.15
2023-09-08T23:43:56.457Z,14.70
2023-09-08T23:47:03.291Z,14.02
2023-09-08T23:49:57.278Z,13.18
2023-09-08T23:52:44.449Z,14.13
2023-09-08T23:55:18.421Z,20.58
2023-09-08T23:57:45.637Z,16.23
